World Is Not Enough — 9HZH8 — position and weather

sailwx.info

Track history (hours):
 
Tides and Currents Weather Stations Pressure Air Temp Water Temp Dewpoint Dewpoint Depression Visibility Wind Speed Wind Dir Waves Ship Positions

World Is Not Enough

Last reported at 2013-Aug-22 21:32 UTC. Time now 2014-Aug-30 20:38 UTC.
Position N 40°29' E 014°20'.
Warning: this ship's position is years out of date!

Length 40 m; draft 1.7 m.

Type: Pleasure craft. MMSI: 256636000.

Date/timePositionNaut miles runAvg speedWind from/ knotsBaromVisibWave heightAir tempDewpointWater temp
2013-Aug-22 21:32N 40°29' E 014°20'7 6.9
2013-Aug-22 20:32N 40°34' E 014°14'0 0.0
2013-Aug-22 19:33N 40°34' E 014°14'0 0.0
2013-Aug-22 18:33N 40°34' E 014°14'0 0.0
2013-Aug-22 17:33N 40°34' E 014°14'0 0.0
2013-Aug-22 16:33N 40°34' E 014°14'0 0.0
2013-Aug-22 15:33N 40°34' E 014°14'0 0.1
2013-Aug-22 14:33N 40°34' E 014°14'0 0.1
2013-Aug-22 13:33N 40°34' E 014°14'9 9.0
2013-Aug-22 12:33N 40°40' E 014°23'2 2.4
2013-Aug-22 11:33N 40°40' E 014°26'0 0.0
2013-Aug-22 10:33N 40°40' E 014°26'0 0.0
2013-Aug-22 09:30N 40°40' E 014°26'2 2.6
2013-Aug-22 08:33N 40°38' E 014°24'0 0.0
2013-Aug-21 22:32N 40°38' E 014°24'0 0.1
2013-Aug-21 19:33N 40°39' E 014°24'9 8.6
2013-Aug-21 18:32N 40°34' E 014°14'0 0.0
2013-Aug-21 17:31N 40°34' E 014°14'0 0.0
2013-Aug-21 16:33N 40°34' E 014°14'0 0.0
2013-Aug-21 15:33N 40°34' E 014°14'0 0.0
2013-Aug-21 14:33N 40°34' E 014°14'0 0.0
2013-Aug-21 13:33N 40°34' E 014°14'0 0.0
2013-Aug-21 12:33N 40°34' E 014°14'0 0.0
2013-Aug-21 11:33N 40°34' E 014°14'0 0.3
2013-Aug-21 10:33N 40°34' E 014°14'1412.4
2013-Aug-21 09:27N 40°44' E 014°26'0 0.2
2013-Aug-21 08:19N 40°44' E 014°27'0 0.0
2013-Aug-21 07:32N 40°44' E 014°27'0 0.0
2013-Aug-21 06:33N 40°44' E 014°27'0 0.0
2013-Aug-21 05:31N 40°44' E 014°27'0 0.0
2013-Aug-21 04:24N 40°44' E 014°27'0 0.0
2013-Aug-21 03:33N 40°44' E 014°27'0 0.0
2013-Aug-21 02:30N 40°44' E 014°27'0 0.0
2013-Aug-21 01:32N 40°44' E 014°27'4 3.7
2013-Aug-21 00:33N 40°42' E 014°23'1212.6
2013-Aug-20 23:33N 40°42' E 014°07'9 8.5
2013-Aug-20 22:33N 40°45' E 013°56'0 0.0
2013-Aug-20 21:33N 40°45' E 013°56'0 0.0
2013-Aug-20 20:33N 40°45' E 013°56'0 0.0
2013-Aug-20 19:33N 40°45' E 013°56'0 0.0
2013-Aug-20 18:33N 40°45' E 013°56'1 1.3
2013-Aug-20 17:33N 40°44' E 013°58'2 2.0
2013-Aug-20 16:32N 40°42' E 013°57'0 0.0
2013-Aug-20 15:33N 40°42' E 013°57'7 7.3
2013-Aug-20 14:33N 40°46' E 014°06'7 1.7
2013-Aug-20 10:32N 40°50' E 014°13'1111.3
2013-Aug-20 09:33N 40°42' E 014°24'3 3.5
2013-Aug-20 08:33N 40°38' E 014°24'0 0.0
2013-Aug-20 07:32N 40°38' E 014°24'0 0.0
2013-Aug-20 06:33N 40°38' E 014°24'0 0.0
2013-Aug-20 05:28N 40°38' E 014°24'0 0.0
2013-Aug-20 04:33N 40°38' E 014°24'0 0.0
2013-Aug-20 03:33N 40°38' E 014°24'0 0.0
2013-Aug-20 02:33N 40°38' E 014°24'0 0.0
2013-Aug-20 01:33N 40°38' E 014°24'0 0.0
2013-Aug-20 00:33N 40°38' E 014°24'0 0.0
2013-Aug-19 23:33N 40°38' E 014°24'0 0.0
2013-Aug-19 22:33N 40°38' E 014°24'0 0.0
2013-Aug-19 21:23N 40°38' E 014°24'0 0.3
2013-Aug-19 20:33N 40°39' E 014°24'2524.7
2013-Aug-19 19:34N 40°41' E 013°52'3636.1
2013-Aug-19 18:34N 41°01' E 013°12'3635.6
2013-Aug-19 17:33N 41°22' E 012°34'4019.4
2013-Aug-19 15:32N 41°49' E 011°55'87 3.8
2013-Aug-18 16:25N 42°45' E 010°26'6 1.4
2013-Aug-18 12:03N 42°43' E 010°18'913.2
2013-Aug-18 11:24N 42°45' E 010°07'12 9.6
2013-Aug-18 10:09N 42°55' E 010°15'5 7.2
2013-Aug-18 09:31N 42°59' E 010°13'1515.4
2013-Aug-18 08:33N 43°11' E 010°02'4234.6
2013-Aug-18 07:21N 43°47' E 009°33'2734.3
2013-Aug-18 06:34N 44°12' E 009°17'7 5.9
2013-Aug-18 05:21N 44°19' E 009°13'0 0.0
2013-Aug-18 04:21N 44°19' E 009°13'0 0.0
2013-Aug-18 02:08N 44°19' E 009°13'0 0.0
2013-Aug-18 01:29N 44°19' E 009°13'0 0.0
2013-Aug-18 00:28N 44°19' E 009°13'0 0.0
2013-Aug-17 23:31N 44°19' E 009°13'0 0.0
2013-Aug-17 22:30N 44°19' E 009°13'0 0.0
2013-Aug-17 21:28N 44°19' E 009°13'0 0.0
2013-Aug-17 20:27N 44°19' E 009°13'0 0.0
2013-Aug-17 19:33N 44°19' E 009°13'0 0.0
2013-Aug-17 18:34N 44°19' E 009°13'0 0.0
2013-Aug-17 17:32N 44°19' E 009°13'0 0.0
2013-Aug-17 16:29N 44°19' E 009°13'0 0.0
2013-Aug-17 15:26N 44°19' E 009°13'0 0.0
2013-Aug-17 14:34N 44°19' E 009°13'4 3.7
2013-Aug-17 13:33N 44°16' E 009°09'1211.9
2013-Aug-17 12:34N 44°11' E 008°55'2828.5
2013-Aug-17 11:33N 43°57' E 008°20'3433.9
2013-Aug-17 10:34N 43°45' E 007°36'7 7.3
2013-Aug-17 09:33N 43°44' E 007°26'0 0.0
2013-Aug-17 08:33N 43°44' E 007°26'0 0.0
2013-Aug-17 07:33N 43°44' E 007°26'0 0.0
2013-Aug-17 06:24N 43°44' E 007°26'0 0.0
2013-Aug-17 05:33N 43°44' E 007°26'0 0.0
2013-Aug-17 04:18N 43°44' E 007°26'0 0.0
2013-Aug-17 03:33N 43°44' E 007°26'0 0.0
2013-Aug-17 02:32N 43°44' E 007°26'0 0.0
2013-Aug-17 01:33N 43°44' E 007°26'0 0.0
2013-Aug-17 00:33N 43°44' E 007°26'0 0.0
2013-Aug-16 23:33N 43°44' E 007°26'0 0.0
2013-Aug-16 22:31N 43°44' E 007°26'0 0.0
2013-Aug-16 21:33N 43°44' E 007°26'0 0.0
2013-Aug-16 20:33N 43°44' E 007°26'0 0.0
2013-Aug-16 18:33N 43°44' E 007°26'0 0.0
2013-Aug-16 17:33N 43°44' E 007°26'0 0.3
2013-Aug-16 16:33N 43°44' E 007°26'4 1.9
2013-Aug-16 14:33N 43°43' E 007°21'0 0.0
2013-Aug-16 13:33N 43°43' E 007°21'10 9.7
2013-Aug-16 12:33N 43°35' E 007°13'9 9.4
2013-Aug-16 11:33N 43°31' E 007°02'2 2.2
2013-Aug-16 10:33N 43°33' E 007°01'0 0.0
2013-Aug-16 09:32N 43°33' E 007°01'0 0.0
2013-Aug-16 08:32N 43°33' E 007°01'0 0.0
2013-Aug-16 07:33N 43°33' E 007°01'0 0.0
2013-Aug-16 06:33N 43°33' E 007°01'0 0.0
2013-Aug-16 05:33N 43°33' E 007°01'0 0.0
2013-Aug-16 04:33N 43°33' E 007°01'0 0.0
2013-Aug-16 03:33N 43°33' E 007°01'0 0.0
2013-Aug-16 02:33N 43°33' E 007°01'0 0.0
2013-Aug-16 01:33N 43°33' E 007°01'0 0.0
2013-Aug-16 00:33N 43°33' E 007°01'0 0.0
2013-Aug-15 23:33N 43°33' E 007°01'0 0.0
2013-Aug-15 22:33N 43°33' E 007°01'0 0.0
2013-Aug-15 21:33N 43°33' E 007°01'0 0.0
2013-Aug-15 20:33N 43°33' E 007°01'0 0.0
2013-Aug-15 19:32N 43°33' E 007°01'0 0.0
2013-Aug-15 18:33N 43°33' E 007°01'0 0.0
2013-Aug-15 17:33N 43°33' E 007°01'0 0.0
2013-Aug-15 16:33N 43°33' E 007°01'0 0.0
2013-Aug-15 15:33N 43°33' E 007°01'0 0.0
2013-Aug-15 14:33N 43°33' E 007°01'0 0.0
2013-Aug-15 13:32N 43°33' E 007°01'0 0.0
2013-Aug-15 12:33N 43°33' E 007°01'0 0.0
2013-Aug-15 11:33N 43°33' E 007°01'0 0.0
2013-Aug-15 10:32N 43°33' E 007°01'0 0.0
2013-Aug-15 09:33N 43°33' E 007°01'0 0.0
2013-Aug-15 08:33N 43°33' E 007°01'0 0.0
2013-Aug-15 07:32N 43°33' E 007°01'0 0.0
2013-Aug-15 06:33N 43°33' E 007°01'0 0.0
2013-Aug-15 05:33N 43°33' E 007°01'0 0.0
2013-Aug-15 04:33N 43°33' E 007°01'0 0.0
2013-Aug-15 03:33N 43°33' E 007°01'0 0.0
2013-Aug-15 02:33N 43°33' E 007°01'0 0.0
2013-Aug-15 01:33N 43°33' E 007°01'0 0.0
2013-Aug-15 00:34N 43°33' E 007°01'0 0.0
2013-Aug-14 23:33N 43°33' E 007°01'0 0.0
2013-Aug-14 22:33N 43°33' E 007°01'0 0.0
2013-Aug-14 21:33N 43°33' E 007°01'0 0.0
2013-Aug-14 20:33N 43°33' E 007°01'0 0.0
2013-Aug-14 19:33N 43°33' E 007°01'0 0.0
2013-Aug-14 18:33N 43°33' E 007°01'0 0.0
2013-Aug-14 17:33N 43°33' E 007°01'0 0.0
2013-Aug-14 16:33N 43°33' E 007°01'3 3.4
2013-Aug-14 15:33N 43°30' E 006°59'2121.1
2013-Aug-14 14:33N 43°13' E 006°41'1 0.5
2013-Aug-14 13:15N 43°13' E 006°40'0 0.0
2013-Aug-14 12:33N 43°13' E 006°40'0 0.0
2013-Aug-14 11:33N 43°13' E 006°40'6 5.6
2013-Aug-14 10:34N 43°17' E 006°46'645630.2
2013-Aug-14 09:32N 54°02' E 007°01'629603.8
2013-Aug-14 08:30N 43°33' E 007°01'0 0.0
2013-Aug-14 07:31N 43°33' E 007°01'0 0.0
2013-Aug-14 06:28N 43°33' E 007°01'0 0.0
2013-Aug-14 05:33N 43°33' E 007°01'0 0.0
2013-Aug-14 04:28N 43°33' E 007°01'0 0.0
2013-Aug-14 03:28N 43°33' E 007°01'0 0.0
2013-Aug-14 02:33N 43°33' E 007°01'0 0.0
2013-Aug-14 00:32N 43°33' E 007°01'0 0.0
2013-Aug-13 23:32N 43°33' E 007°01'0 0.0
2013-Aug-13 22:04N 43°33' E 007°01'0 0.0
2013-Aug-13 21:28N 43°33' E 007°01'0 0.0
2013-Aug-13 20:33N 43°33' E 007°01'0 0.0
2013-Aug-13 19:33N 43°33' E 007°01'2 2.3
2013-Aug-13 18:33N 43°31' E 007°02'2222.1
2013-Aug-13 17:33N 43°44' E 007°26'1 0.8
2013-Aug-13 16:33N 43°45' E 007°27'0 0.0
2013-Aug-13 15:32N 43°45' E 007°27'0 0.0
2013-Aug-13 14:32N 43°45' E 007°27'0 0.0
2013-Aug-13 13:33N 43°45' E 007°27'0 0.0
2013-Aug-13 12:33N 43°45' E 007°27'2121.4
2013-Aug-13 11:34N 43°30' E 007°05'4 3.6
2013-Aug-13 10:33N 43°33' E 007°01'0 0.0
2013-Aug-13 09:33N 43°33' E 007°01'0 0.0
2013-Aug-13 08:33N 43°33' E 007°01'0 0.0
2013-Aug-13 07:33N 43°33' E 007°01'0 0.0
2013-Aug-13 06:33N 43°33' E 007°01'0 0.0
2013-Aug-13 05:33N 43°33' E 007°01'0 0.0
2013-Aug-13 04:33N 43°33' E 007°01'0 0.0
2013-Aug-13 03:33N 43°33' E 007°01'0 0.0
2013-Aug-13 02:33N 43°33' E 007°01'0 0.0
2013-Aug-13 01:33N 43°33' E 007°01'0 0.0
2013-Aug-13 00:33N 43°33' E 007°01'0 0.0
2013-Aug-12 23:32N 43°33' E 007°01'0 0.0
2013-Aug-12 22:33N 43°33' E 007°01'0 0.0
2013-Aug-12 21:33N 43°33' E 007°01'  
Track history (hours):
 
Tides and Currents Weather Stations Pressure Air Temp Water Temp Dewpoint Dewpoint Depression Visibility Wind Speed Wind Dir Waves Ship Positions

World Is Not Enough

Last reported at 2013-Aug-22 21:32 UTC. Time now 2014-Aug-30 20:38 UTC.
Position N 40°29' E 014°20'.
Warning: this ship's position is years out of date!

Length 40 m; draft 1.7 m.

Type: Pleasure craft. MMSI: 256636000.

Date/timePositionNaut miles runAvg speedWind from/ knotsBaromVisibWave heightAir tempDewpointWater temp
2013-Aug-22 21:32N 40°29' E 014°20'7 6.9
2013-Aug-22 20:32N 40°34' E 014°14'0 0.0
2013-Aug-22 19:33N 40°34' E 014°14'0 0.0
2013-Aug-22 18:33N 40°34' E 014°14'0 0.0
2013-Aug-22 17:33N 40°34' E 014°14'0 0.0
2013-Aug-22 16:33N 40°34' E 014°14'0 0.0
2013-Aug-22 15:33N 40°34' E 014°14'0 0.1
2013-Aug-22 14:33N 40°34' E 014°14'0 0.1
2013-Aug-22 13:33N 40°34' E 014°14'9 9.0
2013-Aug-22 12:33N 40°40' E 014°23'2 2.4
2013-Aug-22 11:33N 40°40' E 014°26'0 0.0
2013-Aug-22 10:33N 40°40' E 014°26'0 0.0
2013-Aug-22 09:30N 40°40' E 014°26'2 2.6
2013-Aug-22 08:33N 40°38' E 014°24'0 0.0
2013-Aug-21 22:32N 40°38' E 014°24'0 0.1
2013-Aug-21 19:33N 40°39' E 014°24'9 8.6
2013-Aug-21 18:32N 40°34' E 014°14'0 0.0
2013-Aug-21 17:31N 40°34' E 014°14'0 0.0
2013-Aug-21 16:33N 40°34' E 014°14'0 0.0
2013-Aug-21 15:33N 40°34' E 014°14'0 0.0
2013-Aug-21 14:33N 40°34' E 014°14'0 0.0
2013-Aug-21 13:33N 40°34' E 014°14'0 0.0
2013-Aug-21 12:33N 40°34' E 014°14'0 0.0
2013-Aug-21 11:33N 40°34' E 014°14'0 0.3
2013-Aug-21 10:33N 40°34' E 014°14'1412.4
2013-Aug-21 09:27N 40°44' E 014°26'0 0.2
2013-Aug-21 08:19N 40°44' E 014°27'0 0.0
2013-Aug-21 07:32N 40°44' E 014°27'0 0.0
2013-Aug-21 06:33N 40°44' E 014°27'0 0.0
2013-Aug-21 05:31N 40°44' E 014°27'0 0.0
2013-Aug-21 04:24N 40°44' E 014°27'0 0.0
2013-Aug-21 03:33N 40°44' E 014°27'0 0.0
2013-Aug-21 02:30N 40°44' E 014°27'0 0.0
2013-Aug-21 01:32N 40°44' E 014°27'4 3.7
2013-Aug-21 00:33N 40°42' E 014°23'1212.6
2013-Aug-20 23:33N 40°42' E 014°07'9 8.5
2013-Aug-20 22:33N 40°45' E 013°56'0 0.0
2013-Aug-20 21:33N 40°45' E 013°56'0 0.0
2013-Aug-20 20:33N 40°45' E 013°56'0 0.0
2013-Aug-20 19:33N 40°45' E 013°56'0 0.0
2013-Aug-20 18:33N 40°45' E 013°56'1 1.3
2013-Aug-20 17:33N 40°44' E 013°58'2 2.0
2013-Aug-20 16:32N 40°42' E 013°57'0 0.0
2013-Aug-20 15:33N 40°42' E 013°57'7 7.3
2013-Aug-20 14:33N 40°46' E 014°06'7 1.7
2013-Aug-20 10:32N 40°50' E 014°13'1111.3
2013-Aug-20 09:33N 40°42' E 014°24'3 3.5
2013-Aug-20 08:33N 40°38' E 014°24'0 0.0
2013-Aug-20 07:32N 40°38' E 014°24'0 0.0
2013-Aug-20 06:33N 40°38' E 014°24'0 0.0
2013-Aug-20 05:28N 40°38' E 014°24'0 0.0
2013-Aug-20 04:33N 40°38' E 014°24'0 0.0
2013-Aug-20 03:33N 40°38' E 014°24'0 0.0
2013-Aug-20 02:33N 40°38' E 014°24'0 0.0
2013-Aug-20 01:33N 40°38' E 014°24'0 0.0
2013-Aug-20 00:33N 40°38' E 014°24'0 0.0
2013-Aug-19 23:33N 40°38' E 014°24'0 0.0
2013-Aug-19 22:33N 40°38' E 014°24'0 0.0
2013-Aug-19 21:23N 40°38' E 014°24'0 0.3
2013-Aug-19 20:33N 40°39' E 014°24'2524.7
2013-Aug-19 19:34N 40°41' E 013°52'3636.1
2013-Aug-19 18:34N 41°01' E 013°12'3635.6
2013-Aug-19 17:33N 41°22' E 012°34'4019.4
2013-Aug-19 15:32N 41°49' E 011°55'87 3.8
2013-Aug-18 16:25N 42°45' E 010°26'6 1.4
2013-Aug-18 12:03N 42°43' E 010°18'913.2
2013-Aug-18 11:24N 42°45' E 010°07'12 9.6
2013-Aug-18 10:09N 42°55' E 010°15'5 7.2
2013-Aug-18 09:31N 42°59' E 010°13'1515.4
2013-Aug-18 08:33N 43°11' E 010°02'4234.6
2013-Aug-18 07:21N 43°47' E 009°33'2734.3
2013-Aug-18 06:34N 44°12' E 009°17'7 5.9
2013-Aug-18 05:21N 44°19' E 009°13'0 0.0
2013-Aug-18 04:21N 44°19' E 009°13'0 0.0
2013-Aug-18 02:08N 44°19' E 009°13'0 0.0
2013-Aug-18 01:29N 44°19' E 009°13'0 0.0
2013-Aug-18 00:28N 44°19' E 009°13'0 0.0
2013-Aug-17 23:31N 44°19' E 009°13'0 0.0
2013-Aug-17 22:30N 44°19' E 009°13'0 0.0
2013-Aug-17 21:28N 44°19' E 009°13'0 0.0
2013-Aug-17 20:27N 44°19' E 009°13'0 0.0
2013-Aug-17 19:33N 44°19' E 009°13'0 0.0
2013-Aug-17 18:34N 44°19' E 009°13'0 0.0
2013-Aug-17 17:32N 44°19' E 009°13'0 0.0
2013-Aug-17 16:29N 44°19' E 009°13'0 0.0
2013-Aug-17 15:26N 44°19' E 009°13'0 0.0
2013-Aug-17 14:34N 44°19' E 009°13'4 3.7
2013-Aug-17 13:33N 44°16' E 009°09'1211.9
2013-Aug-17 12:34N 44°11' E 008°55'2828.5
2013-Aug-17 11:33N 43°57' E 008°20'3433.9
2013-Aug-17 10:34N 43°45' E 007°36'7 7.3
2013-Aug-17 09:33N 43°44' E 007°26'0 0.0
2013-Aug-17 08:33N 43°44' E 007°26'0 0.0
2013-Aug-17 07:33N 43°44' E 007°26'0 0.0
2013-Aug-17 06:24N 43°44' E 007°26'0 0.0
2013-Aug-17 05:33N 43°44' E 007°26'0 0.0
2013-Aug-17 04:18N 43°44' E 007°26'0 0.0
2013-Aug-17 03:33N 43°44' E 007°26'0 0.0
2013-Aug-17 02:32N 43°44' E 007°26'0 0.0
2013-Aug-17 01:33N 43°44' E 007°26'0 0.0
2013-Aug-17 00:33N 43°44' E 007°26'0 0.0
2013-Aug-16 23:33N 43°44' E 007°26'0 0.0
2013-Aug-16 22:31N 43°44' E 007°26'0 0.0
2013-Aug-16 21:33N 43°44' E 007°26'0 0.0
2013-Aug-16 20:33N 43°44' E 007°26'0 0.0
2013-Aug-16 18:33N 43°44' E 007°26'0 0.0
2013-Aug-16 17:33N 43°44' E 007°26'0 0.3
2013-Aug-16 16:33N 43°44' E 007°26'4 1.9
2013-Aug-16 14:33N 43°43' E 007°21'0 0.0
2013-Aug-16 13:33N 43°43' E 007°21'10 9.7
2013-Aug-16 12:33N 43°35' E 007°13'9 9.4
2013-Aug-16 11:33N 43°31' E 007°02'2 2.2
2013-Aug-16 10:33N 43°33' E 007°01'0 0.0
2013-Aug-16 09:32N 43°33' E 007°01'0 0.0
2013-Aug-16 08:32N 43°33' E 007°01'0 0.0
2013-Aug-16 07:33N 43°33' E 007°01'0 0.0
2013-Aug-16 06:33N 43°33' E 007°01'0 0.0
2013-Aug-16 05:33N 43°33' E 007°01'0 0.0
2013-Aug-16 04:33N 43°33' E 007°01'0 0.0
2013-Aug-16 03:33N 43°33' E 007°01'0 0.0
2013-Aug-16 02:33N 43°33' E 007°01'0 0.0
2013-Aug-16 01:33N 43°33' E 007°01'0 0.0
2013-Aug-16 00:33N 43°33' E 007°01'0 0.0
2013-Aug-15 23:33N 43°33' E 007°01'0 0.0
2013-Aug-15 22:33N 43°33' E 007°01'0 0.0
2013-Aug-15 21:33N 43°33' E 007°01'0 0.0
2013-Aug-15 20:33N 43°33' E 007°01'0 0.0
2013-Aug-15 19:32N 43°33' E 007°01'0 0.0
2013-Aug-15 18:33N 43°33' E 007°01'0 0.0
2013-Aug-15 17:33N 43°33' E 007°01'0 0.0
2013-Aug-15 16:33N 43°33' E 007°01'0 0.0
2013-Aug-15 15:33N 43°33' E 007°01'0 0.0
2013-Aug-15 14:33N 43°33' E 007°01'0 0.0
2013-Aug-15 13:32N 43°33' E 007°01'0 0.0
2013-Aug-15 12:33N 43°33' E 007°01'0 0.0
2013-Aug-15 11:33N 43°33' E 007°01'0 0.0
2013-Aug-15 10:32N 43°33' E 007°01'0 0.0
2013-Aug-15 09:33N 43°33' E 007°01'0 0.0
2013-Aug-15 08:33N 43°33' E 007°01'0 0.0
2013-Aug-15 07:32N 43°33' E 007°01'0 0.0
2013-Aug-15 06:33N 43°33' E 007°01'0 0.0
2013-Aug-15 05:33N 43°33' E 007°01'0 0.0
2013-Aug-15 04:33N 43°33' E 007°01'0 0.0
2013-Aug-15 03:33N 43°33' E 007°01'0 0.0
2013-Aug-15 02:33N 43°33' E 007°01'0 0.0
2013-Aug-15 01:33N 43°33' E 007°01'0 0.0
2013-Aug-15 00:34N 43°33' E 007°01'0 0.0
2013-Aug-14 23:33N 43°33' E 007°01'0 0.0
2013-Aug-14 22:33N 43°33' E 007°01'0 0.0
2013-Aug-14 21:33N 43°33' E 007°01'0 0.0
2013-Aug-14 20:33N 43°33' E 007°01'0 0.0
2013-Aug-14 19:33N 43°33' E 007°01'0 0.0
2013-Aug-14 18:33N 43°33' E 007°01'0 0.0
2013-Aug-14 17:33N 43°33' E 007°01'0 0.0
2013-Aug-14 16:33N 43°33' E 007°01'3 3.4
2013-Aug-14 15:33N 43°30' E 006°59'2121.1
2013-Aug-14 14:33N 43°13' E 006°41'1 0.5
2013-Aug-14 13:15N 43°13' E 006°40'0 0.0
2013-Aug-14 12:33N 43°13' E 006°40'0 0.0
2013-Aug-14 11:33N 43°13' E 006°40'6 5.6
2013-Aug-14 10:34N 43°17' E 006°46'645630.2
2013-Aug-14 09:32N 54°02' E 007°01'629603.8
2013-Aug-14 08:30N 43°33' E 007°01'0 0.0
2013-Aug-14 07:31N 43°33' E 007°01'0 0.0
2013-Aug-14 06:28N 43°33' E 007°01'0 0.0
2013-Aug-14 05:33N 43°33' E 007°01'0 0.0
2013-Aug-14 04:28N 43°33' E 007°01'0 0.0
2013-Aug-14 03:28N 43°33' E 007°01'0 0.0
2013-Aug-14 02:33N 43°33' E 007°01'0 0.0
2013-Aug-14 00:32N 43°33' E 007°01'0 0.0
2013-Aug-13 23:32N 43°33' E 007°01'0 0.0
2013-Aug-13 22:04N 43°33' E 007°01'0 0.0
2013-Aug-13 21:28N 43°33' E 007°01'0 0.0
2013-Aug-13 20:33N 43°33' E 007°01'0 0.0
2013-Aug-13 19:33N 43°33' E 007°01'2 2.3
2013-Aug-13 18:33N 43°31' E 007°02'2222.1
2013-Aug-13 17:33N 43°44' E 007°26'1 0.8
2013-Aug-13 16:33N 43°45' E 007°27'0 0.0
2013-Aug-13 15:32N 43°45' E 007°27'0 0.0
2013-Aug-13 14:32N 43°45' E 007°27'0 0.0
2013-Aug-13 13:33N 43°45' E 007°27'0 0.0
2013-Aug-13 12:33N 43°45' E 007°27'2121.4
2013-Aug-13 11:34N 43°30' E 007°05'4 3.6
2013-Aug-13 10:33N 43°33' E 007°01'0 0.0
2013-Aug-13 09:33N 43°33' E 007°01'0 0.0
2013-Aug-13 08:33N 43°33' E 007°01'0 0.0
2013-Aug-13 07:33N 43°33' E 007°01'0 0.0
2013-Aug-13 06:33N 43°33' E 007°01'0 0.0
2013-Aug-13 05:33N 43°33' E 007°01'0 0.0
2013-Aug-13 04:33N 43°33' E 007°01'0 0.0
2013-Aug-13 03:33N 43°33' E 007°01'0 0.0
2013-Aug-13 02:33N 43°33' E 007°01'0 0.0
2013-Aug-13 01:33N 43°33' E 007°01'0 0.0
2013-Aug-13 00:33N 43°33' E 007°01'0 0.0
2013-Aug-12 23:32N 43°33' E 007°01'0 0.0
2013-Aug-12 22:33N 43°33' E 007°01'0 0.0
2013-Aug-12 21:33N 43°33' E 007°01'  

Dump ship's entire track history